Time;durP1;ratioP1;P1;durP2;ratioP2;P2;SDS_P1;SDS_P2;PMS_P1;PMS_P2;Temp;Humidity;BMP_temperature;BMP_pressure;BME280_temperature;BME280_humidity;BME280_pressure;Samples;Min_cycle;Max_cycle;Signal;HPM_P1;HPM_P2
2022/10/09 00:01:08;;;;;;;;;;;;;;;9.99;65.11;101455.54;1787619;80;25684;-59
2022/10/09 00:03:38;;;;;;;;;;;;;;;9.97;65.15;101454.79;1784056;80;25974;-59
2022/10/09 00:06:07;;;;;;;;;;;;;;;9.95;65.11;101444.16;1787374;78;25865;-58
2022/10/09 00:08:35;;;;;;;;;;;;;;;9.95;65.16;101453.57;1787404;80;25934;-59
2022/10/09 00:11:11;;;;;;;;;;;;;;;9.96;65.05;101447.23;1786999;80;27530;-59
2022/10/09 00:13:38;;;;;;;;;;;;;;;9.94;65.15;101449.16;1782318;79;25698;-60
2022/10/09 00:16:11;;;;;;;;;;;;;;;9.91;65.20;101444.01;1768631;80;25743;-59
2022/10/09 00:18:38;;;;;;;;;;;;;;;9.88;65.15;101438.88;1772842;80;25684;-60
2022/10/09 00:21:05;;;;;;;;;;;;;;;9.86;65.59;101443.52;1756886;81;25690;-60
2022/10/09 00:23:32;;;;;;;;;;;;;;;9.84;65.47;101436.05;1779398;80;28258;-60
2022/10/09 00:26:00;;;;;;;;;;;;;;;9.82;65.44;101438.86;1788024;80;25713;-60
2022/10/09 00:28:29;;;;;;;;;;;;;;;9.81;65.27;101436.30;1775990;79;25761;-59
2022/10/09 00:30:56;;;;;;;;;;;;;;;9.77;65.74;101428.08;1753510;80;25652;-60
2022/10/09 00:33:23;;;;;;;;;;;;;;;9.77;65.41;101430.77;1755548;81;25667;-60
2022/10/09 00:35:50;;;;;;;;;;;;;;;9.76;65.39;101433.08;1773290;81;27471;-59
2022/10/09 00:38:17;;;;;;;;;;;;;;;9.74;65.35;101434.55;1755845;81;25989;-60
2022/10/09 00:40:44;;;;;;;;;;;;;;;9.69;65.22;101428.17;1743573;82;25585;-60
2022/10/09 00:43:16;;;;;;;;;;;;;;;9.65;65.16;101425.83;1761304;81;26236;-59
2022/10/09 00:45:49;;;;;;;;;;;;;;;9.59;65.26;101425.79;1773253;81;25778;-60
2022/10/09 00:48:16;;;;;;;;;;;;;;;9.55;65.48;101421.13;1771752;80;28435;-59
2022/10/09 00:50:55;;;;;;;;;;;;;;;9.51;65.33;101416.95;1788838;80;25501;-60
2022/10/09 00:53:24;;;;;;;;;;;;;;;9.49;65.59;101418.04;1743687;81;25701;-58
2022/10/09 00:55:51;;;;;;;;;;;;;;;9.49;65.79;101418.91;1743705;81;26341;-58
2022/10/09 00:58:18;;;;;;;;;;;;;;;9.51;65.89;101410.23;1755583;81;25746;-59
2022/10/09 01:00:45;;;;;;;;;;;;;;;9.50;65.67;101417.91;1772568;81;28303;-61
2022/10/09 01:03:11;;;;;;;;;;;;;;;9.47;65.68;101418.16;1771407;81;27296;-59
2022/10/09 01:05:56;;;;;;;;;;;;;;;9.43;65.54;101419.34;1774086;81;25688;-59
2022/10/09 01:08:28;;;;;;;;;;;;;;;9.37;65.48;101423.33;1773468;80;26302;-59
2022/10/09 01:11:04;;;;;;;;;;;;;;;9.33;65.57;101415.14;1763483;80;25663;-60
2022/10/09 01:13:46;;;;;;;;;;;;;;;9.28;65.70;101421.31;1755834;81;25995;-59
2022/10/09 01:16:17;;;;;;;;;;;;;;;9.26;65.72;101421.06;1774090;81;25418;-59
2022/10/09 01:19:09;;;;;;;;;;;;;;;9.24;65.84;101418.50;1750281;80;25665;-60
2022/10/09 01:21:47;;;;;;;;;;;;;;;9.22;65.81;101412.38;1723398;81;25778;-59
2022/10/09 01:24:20;;;;;;;;;;;;;;;9.15;66.21;101413.30;1726105;81;25853;-61
2022/10/09 01:27:02;;;;;;;;;;;;;;;9.15;66.35;101411.11;1773022;80;26841;-60
2022/10/09 01:29:35;;;;;;;;;;;;;;;9.13;66.28;101415.27;1768115;80;25779;-59
2022/10/09 01:32:03;;;;;;;;;;;;;;;9.12;66.56;101415.34;1743338;81;25608;-59
2022/10/09 01:34:31;;;;;;;;;;;;;;;9.13;66.51;101413.92;1769372;79;25726;-60
2022/10/09 01:36:58;;;;;;;;;;;;;;;9.13;66.60;101418.41;1773345;81;26747;-59
2022/10/09 01:39:25;;;;;;;;;;;;;;;9.12;66.34;101415.34;1757884;81;27541;-59
2022/10/09 01:41:53;;;;;;;;;;;;;;;9.08;66.19;101420.09;1771046;81;25771;-59
2022/10/09 01:44:23;;;;;;;;;;;;;;;9.01;66.12;101417.47;1765837;81;25679;-59
2022/10/09 01:46:49;;;;;;;;;;;;;;;8.97;66.38;101426.23;1744675;81;25638;-59
2022/10/09 01:49:46;;;;;;;;;;;;;;;8.91;66.09;101426.68;1761112;80;25655;-59
2022/10/09 01:52:42;;;;;;;;;;;;;;;8.86;66.26;101426.13;1748066;81;27487;-59
2022/10/09 01:55:24;;;;;;;;;;;;;;;8.83;66.44;101426.37;1774204;81;25748;-60
2022/10/09 01:58:05;;;;;;;;;;;;;;;8.81;66.47;101428.30;1760912;81;25700;-58
2022/10/09 02:00:35;;;;;;;;;;;;;;;8.79;66.37;101424.86;1765002;81;26002;-59
2022/10/09 02:03:05;;;;;;;;;;;;;;;8.76;66.73;101420.58;1773678;80;25730;-60
2022/10/09 02:05:33;;;;;;;;;;;;;;;8.77;66.78;101421.80;1769389;81;27590;-59
2022/10/09 02:08:00;;;;;;;;;;;;;;;8.79;66.72;101420.83;1755819;81;26036;-60
2022/10/09 02:10:27;;;;;;;;;;;;;;;8.79;66.76;101418.15;1771499;81;25792;-59
2022/10/09 02:12:57;;;;;;;;;;;;;;;8.81;66.78;101411.70;1765129;80;25854;-59
2022/10/09 02:15:27;;;;;;;;;;;;;;;8.84;66.94;101418.20;1767347;80;25699;-60
2022/10/09 02:17:55;;;;;;;;;;;;;;;8.85;67.04;101414.55;1759546;80;27531;-59
2022/10/09 02:20:24;;;;;;;;;;;;;;;8.87;67.15;101415.78;1774106;79;26145;-59
2022/10/09 02:22:52;;;;;;;;;;;;;;;8.85;66.70;101416.36;1771614;80;25689;-59
2022/10/09 02:25:20;;;;;;;;;;;;;;;8.79;66.71;101424.36;1762650;81;26008;-59
2022/10/09 02:27:47;;;;;;;;;;;;;;;8.74;66.69;101426.02;1773174;81;25925;-59
2022/10/09 02:30:15;;;;;;;;;;;;;;;8.71;66.67;101430.75;1769081;80;27440;-60
2022/10/09 02:32:41;;;;;;;;;;;;;;;8.67;66.76;101434.13;1757074;80;25781;-59
2022/10/09 02:35:08;;;;;;;;;;;;;;;8.66;66.90;101431.57;1783381;80;25749;-59
2022/10/09 02:37:34;;;;;;;;;;;;;;;8.65;66.63;101440.58;1775174;79;25761;-60
2022/10/09 02:40:01;;;;;;;;;;;;;;;8.60;66.68;101439.56;1765373;80;25750;-59
2022/10/09 02:42:28;;;;;;;;;;;;;;;8.59;66.84;101441.86;1786329;79;27548;-59
2022/10/09 02:44:55;;;;;;;;;;;;;;;8.56;66.64;101442.94;1760766;80;25809;-59
2022/10/09 02:47:21;;;;;;;;;;;;;;;8.54;66.89;101449.38;1740105;80;25685;-59
2022/10/09 02:49:47;;;;;;;;;;;;;;;8.49;66.93;101447.48;1787996;79;25680;-59
2022/10/09 02:52:14;;;;;;;;;;;;;;;8.43;66.89;101448.73;1784672;79;25735;-59
2022/10/09 02:54:40;;;;;;;;;;;;;;;8.40;67.23;101452.48;1786556;79;29751;-60
2022/10/09 02:57:06;;;;;;;;;;;;;;;8.39;67.47;101459.30;1782183;80;25755;-60
2022/10/09 02:59:33;;;;;;;;;;;;;;;8.39;67.45;101468.69;1756886;80;25723;-60
2022/10/09 03:02:00;;;;;;;;;;;;;;;8.35;67.44;101468.04;1781302;80;25654;-60
2022/10/09 03:04:27;;;;;;;;;;;;;;;8.40;67.66;101474.42;1764623;80;25707;-60
2022/10/09 03:06:53;;;;;;;;;;;;;;;8.42;67.51;101475.19;1788165;80;28118;-59
2022/10/09 03:09:20;;;;;;;;;;;;;;;8.41;67.40;101472.12;1785265;79;25472;-59
2022/10/09 03:11:46;;;;;;;;;;;;;;;8.42;67.62;101469.33;1785194;80;25773;-59
2022/10/09 03:14:13;;;;;;;;;;;;;;;8.43;67.44;101475.08;1787259;80;25718;-59
2022/10/09 03:16:39;;;;;;;;;;;;;;;8.40;67.27;101471.75;1787921;79;25774;-59
2022/10/09 03:19:06;;;;;;;;;;;;;;;8.37;67.37;101466.58;1783884;79;27508;-59
2022/10/09 03:21:32;;;;;;;;;;;;;;;8.35;67.24;101466.70;1785929;79;25715;-59
2022/10/09 03:23:59;;;;;;;;;;;;;;;8.34;67.23;101463.64;1787287;80;25686;-60
2022/10/09 03:26:26;;;;;;;;;;;;;;;8.30;67.28;101462.11;1782924;79;25755;-59
2022/10/09 03:28:55;;;;;;;;;;;;;;;8.27;67.29;101461.84;1767409;80;25748;-59
2022/10/09 03:31:24;;;;;;;;;;;;;;;8.27;67.50;101467.21;1762098;80;28245;-59
2022/10/09 03:33:50;;;;;;;;;;;;;;;8.26;67.36;101461.47;1775886;80;25664;-59
2022/10/09 03:36:17;;;;;;;;;;;;;;;8.24;67.37;101463.42;1787587;80;25710;-59
2022/10/09 03:38:43;;;;;;;;;;;;;;;8.23;67.24;101469.73;1781984;79;25726;-60
2022/10/09 03:41:09;;;;;;;;;;;;;;;8.19;67.19;101472.23;1785562;79;25711;-59
2022/10/09 03:43:36;;;;;;;;;;;;;;;8.15;67.35;101476.09;1786719;80;27478;-59
2022/10/09 03:46:05;;;;;;;;;;;;;;;8.12;67.44;101478.97;1786797;80;25750;-60
2022/10/09 03:48:33;;;;;;;;;;;;;;;8.12;67.58;101478.97;1786874;79;25759;-59
2022/10/09 03:50:59;;;;;;;;;;;;;;;8.10;67.44;101479.55;1778900;79;26159;-60
2022/10/09 03:53:26;;;;;;;;;;;;;;;8.07;68.07;101482.45;1760162;80;25410;-60
2022/10/09 03:55:53;;;;;;;;;;;;;;;8.02;68.00;101482.76;1779693;80;27476;-59
2022/10/09 03:58:19;;;;;;;;;;;;;;;7.97;67.97;101486.20;1765308;80;25751;-60
2022/10/09 04:00:46;;;;;;;;;;;;;;;7.94;68.23;101485.94;1785836;80;25426;-60
2022/10/09 04:03:12;;;;;;;;;;;;;;;7.93;68.36;101494.09;1768669;80;25731;-60
2022/10/09 04:05:39;;;;;;;;;;;;;;;7.93;68.37;101488.23;1786825;80;25658;-60
2022/10/09 04:08:05;;;;;;;;;;;;;;;7.94;68.37;101487.73;1768004;79;28628;-60
2022/10/09 04:10:32;;;;;;;;;;;;;;;7.97;68.49;101485.75;1777495;79;25783;-60
2022/10/09 04:12:59;;;;;;;;;;;;;;;8.01;68.82;101486.86;1767526;80;25904;-60
2022/10/09 04:15:25;;;;;;;;;;;;;;;8.01;68.65;101482.38;1756637;80;25761;-60
2022/10/09 04:17:52;;;;;;;;;;;;;;;8.02;68.57;101480.55;1756665;80;25767;-61
2022/10/09 04:20:19;;;;;;;;;;;;;;;8.03;68.26;101475.07;1762909;80;27481;-60
2022/10/09 04:22:46;;;;;;;;;;;;;;;8.04;68.17;101480.81;1776673;80;25762;-59
2022/10/09 04:25:12;;;;;;;;;;;;;;;8.06;68.39;101476.71;1781745;80;25788;-61
2022/10/09 04:27:39;;;;;;;;;;;;;;;8.08;68.25;101486.83;1763517;80;25736;-59
2022/10/09 04:30:07;;;;;;;;;;;;;;;8.07;68.25;101491.34;1772785;79;25796;-59
2022/10/09 04:32:33;;;;;;;;;;;;;;;8.07;68.24;101489.16;1773781;81;28475;-59
2022/10/09 04:35:00;;;;;;;;;;;;;;;8.06;68.23;101494.98;1753717;80;25955;-59
2022/10/09 04:37:26;;;;;;;;;;;;;;;8.06;68.33;101500.34;1743770;81;25771;-59
2022/10/09 04:39:52;;;;;;;;;;;;;;;8.09;68.49;101503.28;1760710;81;25706;-60
2022/10/09 04:42:19;;;;;;;;;;;;;;;8.14;68.66;101498.00;1774171;81;25937;-60
2022/10/09 04:44:46;;;;;;;;;;;;;;;8.19;68.62;101503.05;1772165;80;27771;-59
2022/10/09 04:47:12;;;;;;;;;;;;;;;8.22;68.44;101497.50;1774347;81;25762;-60
2022/10/09 04:49:38;;;;;;;;;;;;;;;8.24;68.60;101502.75;1773673;79;25697;-59
2022/10/09 04:52:05;;;;;;;;;;;;;;;8.26;68.41;101500.33;1774158;81;25721;-59
2022/10/09 04:54:31;;;;;;;;;;;;;;;8.30;68.50;101507.69;1772684;81;27361;-61
2022/10/09 04:56:57;;;;;;;;;;;;;;;8.36;68.56;101505.95;1765284;79;27458;-59
2022/10/09 04:59:24;;;;;;;;;;;;;;;8.40;68.52;101511.47;1769077;81;25684;-60
2022/10/09 05:01:50;;;;;;;;;;;;;;;8.44;68.85;101517.02;1772392;79;25742;-60
2022/10/09 05:04:17;;;;;;;;;;;;;;;8.48;68.70;101515.48;1773254;81;25474;-60
2022/10/09 05:06:43;;;;;;;;;;;;;;;8.53;68.94;101528.11;1774732;81;25672;-60
2022/10/09 05:09:10;;;;;;;;;;;;;;;8.59;68.93;101527.22;1772621;80;27474;-61
2022/10/09 05:11:36;;;;;;;;;;;;;;;8.65;69.37;101526.41;1741879;81;25743;-59
2022/10/09 05:14:03;;;;;;;;;;;;;;;8.70;69.07;101526.47;1756290;81;25671;-60
2022/10/09 05:16:30;;;;;;;;;;;;;;;8.79;69.18;101533.51;1771427;81;25722;-59
2022/10/09 05:18:59;;;;;;;;;;;;;;;8.87;69.01;101536.05;1773292;81;25743;-59
2022/10/09 05:21:27;;;;;;;;;;;;;;;8.97;68.84;101537.60;1743591;81;27522;-59
2022/10/09 05:23:54;;;;;;;;;;;;;;;9.08;68.79;101535.50;1743369;81;25709;-59
2022/10/09 05:26:23;;;;;;;;;;;;;;;9.28;69.01;101526.52;1765136;81;25736;-59
2022/10/09 05:28:50;;;;;;;;;;;;;;;9.48;68.76;101527.31;1771602;81;25711;-60
2022/10/09 05:31:24;;;;;;;;;;;;;;;9.61;68.61;101531.77;1736896;81;25722;-60
2022/10/09 05:33:51;;;;;;;;;;;;;;;9.69;68.49;101533.41;1748166;80;27546;-60
2022/10/09 05:36:18;;;;;;;;;;;;;;;9.73;68.28;101537.61;1760171;80;25658;-60
2022/10/09 05:38:45;;;;;;;;;;;;;;;9.80;68.31;101536.69;1775764;80;25819;-60
2022/10/09 05:41:13;;;;;;;;;;;;;;;9.89;68.42;101533.33;1776301;80;25588;-60
2022/10/09 05:43:43;;;;;;;;;;;;;;;10.00;68.45;101540.09;1772166;80;25776;-60
2022/10/09 05:46:11;;;;;;;;;;;;;;;10.00;68.02;101537.40;1781472;80;27425;-59
2022/10/09 05:48:43;;;;;;;;;;;;;;;10.10;68.12;101551.50;1785914;80;25733;-59
2022/10/09 05:51:14;;;;;;;;;;;;;;;10.06;68.37;101558.94;1787415;79;25788;-59
2022/10/09 05:53:42;;;;;;;;;;;;;;;10.06;67.94;101560.78;1785268;79;25702;-60
2022/10/09 05:56:21;;;;;;;;;;;;;;;10.14;68.07;101557.03;1787504;79;25698;-59
2022/10/09 05:58:52;;;;;;;;;;;;;;;10.17;68.15;101560.36;1771212;79;28558;-60
2022/10/09 06:01:20;;;;;;;;;;;;;;;10.20;67.88;101566.48;1777544;80;25969;-60
2022/10/09 06:03:49;;;;;;;;;;;;;;;10.18;67.97;101573.30;1772730;80;25804;-61
2022/10/09 06:06:17;;;;;;;;;;;;;;;10.15;68.75;101576.23;1756772;80;25699;-59
2022/10/09 06:08:44;;;;;;;;;;;;;;;9.98;69.44;101570.74;1756449;80;25787;-60
2022/10/09 06:11:19;;;;;;;;;;;;;;;9.87;69.90;101575.58;1749542;80;28985;-60
2022/10/09 06:13:46;;;;;;;;;;;;;;;9.78;70.62;101581.12;1761437;80;26473;-60
2022/10/09 06:16:15;;;;;;;;;;;;;;;9.80;70.73;101586.40;1752875;80;25811;-59
2022/10/09 06:18:45;;;;;;;;;;;;;;;9.75;70.68;101585.86;1753209;81;26157;-61
2022/10/09 06:21:11;;;;;;;;;;;;;;;9.69;71.05;101588.49;1750244;80;25750;-60
2022/10/09 06:23:38;;;;;;;;;;;;;;;9.66;71.85;101598.14;1755593;80;27467;-60
2022/10/09 06:26:08;;;;;;;;;;;;;;;9.66;71.54;101602.17;1749704;80;25845;-60
2022/10/09 06:28:35;;;;;;;;;;;;;;;9.60;72.02;101611.52;1733338;80;25870;-60
2022/10/09 06:31:05;;;;;;;;;;;;;;;9.57;72.18;101617.60;1749665;80;25683;-60
2022/10/09 06:33:33;;;;;;;;;;;;;;;9.52;72.39;101620.61;1746489;81;25823;-60
2022/10/09 06:36:01;;;;;;;;;;;;;;;9.56;71.78;101608.66;1742673;81;28222;-59
2022/10/09 06:38:28;;;;;;;;;;;;;;;9.63;71.53;101614.00;1751688;81;25698;-60
2022/10/09 06:40:54;;;;;;;;;;;;;;;9.76;71.51;101618.48;1741590;80;26117;-60
2022/10/09 06:43:21;;;;;;;;;;;;;;;9.83;71.18;101628.69;1744368;81;26792;-60
2022/10/09 06:45:47;;;;;;;;;;;;;;;9.90;71.19;101621.52;1753241;81;25664;-60
2022/10/09 06:48:13;;;;;;;;;;;;;;;9.96;70.90;101622.41;1742151;81;28257;-61
2022/10/09 06:50:40;;;;;;;;;;;;;;;10.10;70.61;101624.09;1743176;81;25698;-60
2022/10/09 06:53:07;;;;;;;;;;;;;;;10.27;70.45;101618.83;1739279;81;25494;-59
2022/10/09 06:55:33;;;;;;;;;;;;;;;10.48;70.03;101620.44;1743492;81;26661;-59
2022/10/09 06:58:00;;;;;;;;;;;;;;;10.64;69.51;101618.80;1740818;81;25813;-59
2022/10/09 07:00:26;;;;;;;;;;;;;;;10.80;69.18;101623.39;1766110;81;27472;-61
2022/10/09 07:02:53;;;;;;;;;;;;;;;10.93;69.02;101621.97;1773874;81;25747;-59
2022/10/09 07:05:19;;;;;;;;;;;;;;;11.10;68.89;101631.45;1761061;81;25759;-60
2022/10/09 07:07:46;;;;;;;;;;;;;;;11.24;68.50;101631.73;1760610;79;26872;-61
2022/10/09 07:10:13;;;;;;;;;;;;;;;11.40;68.08;101632.70;1750667;81;25738;-61
2022/10/09 07:12:39;;;;;;;;;;;;;;;11.54;67.59;101628.08;1765791;81;28140;-60
2022/10/09 07:15:07;;;;;;;;;;;;;;;11.66;67.30;101637.02;1747728;81;25795;-61
2022/10/09 07:17:33;;;;;;;;;;;;;;;11.79;66.68;101642.30;1738203;81;25688;-60
2022/10/09 07:20:01;;;;;;;;;;;;;;;11.87;66.57;101643.88;1773475;81;25834;-60
2022/10/09 07:22:27;;;;;;;;;;;;;;;11.94;66.19;101640.20;1743637;81;25714;-60
2022/10/09 07:24:53;;;;;;;;;;;;;;;12.05;65.96;101633.49;1772470;79;28247;-61
2022/10/09 07:27:20;;;;;;;;;;;;;;;12.17;65.67;101641.91;1772473;79;25786;-61
2022/10/09 07:29:47;;;;;;;;;;;;;;;12.29;65.30;101637.86;1734467;80;25722;-60
2022/10/09 07:32:14;;;;;;;;;;;;;;;12.39;65.00;101644.21;1769004;80;25768;-59
2022/10/09 07:34:40;;;;;;;;;;;;;;;12.51;64.90;101640.98;1773643;80;25603;-60
2022/10/09 07:37:06;;;;;;;;;;;;;;;12.64;64.75;101630.86;1754731;81;27570;-60
2022/10/09 07:39:34;;;;;;;;;;;;;;;12.81;64.54;101632.16;1741216;81;25860;-60
2022/10/09 07:42:02;;;;;;;;;;;;;;;12.96;64.12;101635.39;1743341;81;25783;-60
2022/10/09 07:44:28;;;;;;;;;;;;;;;13.06;63.45;101635.45;1744553;81;25672;-60
2022/10/09 07:46:55;;;;;;;;;;;;;;;13.17;62.51;101641.78;1737905;81;25732;-59
2022/10/09 07:49:22;;;;;;;;;;;;;;;13.23;62.41;101635.84;1743638;81;26917;-60
2022/10/09 07:51:48;;;;;;;;;;;;;;;13.29;61.77;101642.94;1744940;81;25898;-59
2022/10/09 07:54:15;;;;;;;;;;;;;;;13.38;62.04;101633.19;1740210;81;25780;-61
2022/10/09 07:56:42;;;;;;;;;;;;;;;13.50;61.68;101633.11;1740578;81;25721;-62
2022/10/09 07:59:11;;;;;;;;;;;;;;;13.58;61.42;101638.22;1743926;81;25996;-60
2022/10/09 08:01:38;;;;;;;;;;;;;;;13.72;61.66;101630.25;1744994;81;27658;-60
2022/10/09 08:04:04;;;;;;;;;;;;;;;13.86;61.27;101631.73;1750245;81;25711;-60
2022/10/09 08:06:31;;;;;;;;;;;;;;;13.94;60.34;101628.31;1743172;81;25771;-61
2022/10/09 08:09:01;;;;;;;;;;;;;;;13.96;59.74;101633.10;1744133;81;25666;-60
2022/10/09 08:11:28;;;;;;;;;;;;;;;14.05;59.88;101630.92;1742085;81;25984;-60
2022/10/09 08:13:55;;;;;;;;;;;;;;;14.14;59.51;101625.20;1745836;81;27521;-61
2022/10/09 08:16:23;;;;;;;;;;;;;;;14.28;59.80;101621.72;1753158;79;25724;-60
2022/10/09 08:18:53;;;;;;;;;;;;;;;14.49;59.97;101614.83;1737586;81;25641;-59
2022/10/09 08:21:19;;;;;;;;;;;;;;;14.72;58.79;101615.45;1760978;81;25749;-60
2022/10/09 08:23:46;;;;;;;;;;;;;;;14.83;58.49;101608.53;1774637;80;25751;-61
2022/10/09 08:26:15;;;;;;;;;;;;;;;15.07;58.86;101613.98;1771699;81;28319;-61
2022/10/09 08:28:42;;;;;;;;;;;;;;;15.28;57.81;101612.47;1773193;80;25674;-61
2022/10/09 08:31:10;;;;;;;;;;;;;;;15.50;57.52;101606.31;1743382;80;25789;-60
2022/10/09 08:33:37;;;;;;;;;;;;;;;15.72;57.38;101613.22;1778645;80;25774;-61
2022/10/09 08:36:09;;;;;;;;;;;;;;;15.81;54.96;101620.47;1753622;80;25695;-60
2022/10/09 08:38:36;;;;;;;;;;;;;;;15.87;55.20;101612.27;1755692;80;28253;-60
2022/10/09 08:41:27;;;;;;;;;;;;;;;16.05;55.58;101607.38;1768333;80;25889;-61
2022/10/09 08:43:57;;;;;;;;;;;;;;;16.32;55.22;101615.14;1788476;80;25473;-60
2022/10/09 08:46:27;;;;;;;;;;;;;;;16.62;55.04;101610.36;1769479;79;26495;-60
2022/10/09 08:48:54;;;;;;;;;;;;;;;16.90;54.15;101607.86;1757777;80;25447;-61
2022/10/09 08:51:24;;;;;;;;;;;;;;;17.18;53.42;101610.48;1776318;80;27476;-60
2022/10/09 08:53:57;;;;;;;;;;;;;;;17.38;51.11;101602.64;1763041;79;25968;-61
2022/10/09 08:56:24;;;;;;;;;;;;;;;17.75;52.32;101596.87;1758566;80;25729;-60
2022/10/09 08:58:51;;;;;;;;;;;;;;;18.12;50.81;101594.80;1754166;81;25704;-61
2022/10/09 09:01:30;;;;;;;;;;;;;;;18.43;49.83;101588.23;1754403;80;25934;-62
2022/10/09 09:04:09;;;;;;;;;;;;;;;18.74;48.91;101594.89;1745391;80;29674;-61
2022/10/09 09:06:42;;;;;;;;;;;;;;;19.32;48.46;101592.98;1758952;79;25752;-60
2022/10/09 09:09:20;;;;;;;;;;;;;;;19.91;46.72;101593.16;1731965;81;25736;-59
2022/10/09 09:12:05;;;;;;;;;;;;;;;20.68;45.65;101596.08;1777171;80;25737;-60
2022/10/09 09:14:55;;;;;;;;;;;;;;;21.43;43.87;101594.38;1783844;80;25810;-59
2022/10/09 09:17:48;;;;;;;;;;;;;;;22.28;43.58;101582.52;1747061;80;28185;-60
2022/10/09 09:20:30;;;;;;;;;;;;;;;23.12;43.30;101578.75;1782761;79;26106;-60
2022/10/09 09:22:59;;;;;;;;;;;;;;;23.88;42.51;101577.92;1774851;80;25747;-61
2022/10/09 09:25:29;;;;;;;;;;;;;;;24.64;40.86;101569.67;1758253;80;26627;-61
2022/10/09 09:28:02;;;;;;;;;;;;;;;25.20;39.84;101566.15;1756042;81;25713;-60
2022/10/09 09:30:32;;;;;;;;;;;;;;;25.85;36.32;101568.96;1764570;80;28253;-60
2022/10/09 09:33:02;;;;;;;;;;;;;;;26.02;33.42;101565.14;1776118;80;25680;-60
2022/10/09 09:35:35;;;;;;;;;;;;;;;26.11;33.78;101568.54;1768935;80;25676;-61
2022/10/09 09:38:02;;;;;;;;;;;;;;;26.63;34.94;101566.16;1769037;81;25846;-61
2022/10/09 09:40:31;;;;;;;;;;;;;;;27.10;30.79;101568.01;1754312;81;25746;-60
2022/10/09 09:42:59;;;;;;;;;;;;;;;27.64;32.10;101563.30;1774055;80;27981;-60
2022/10/09 09:45:26;;;;;;;;;;;;;;;28.33;31.25;101565.78;1773656;81;25743;-60
2022/10/09 09:48:03;;;;;;;;;;;;;;;28.64;29.69;101568.49;1771791;81;25722;-60
2022/10/09 09:50:32;;;;;;;;;;;;;;;28.72;28.51;101567.66;1772849;81;25679;-60
2022/10/09 09:53:08;;;;;;;;;;;;;;;29.26;28.16;101565.30;1714149;83;25689;-61
2022/10/09 09:55:35;;;;;;;;;;;;;;;29.07;25.79;101563.19;1739743;81;27969;-61
2022/10/09 09:58:07;;;;;;;;;;;;;;;28.80;26.08;101562.28;1768483;79;25767;-60
2022/10/09 10:00:34;;;;;;;;;;;;;;;28.94;28.13;101566.22;1745752;81;26510;-61
2022/10/09 10:03:03;;;;;;;;;;;;;;;29.51;28.10;101566.41;1741469;82;25731;-59
2022/10/09 10:05:33;;;;;;;;;;;;;;;29.69;27.26;101571.48;1742012;81;25888;-61
2022/10/09 10:08:00;;;;;;;;;;;;;;;30.07;25.71;101569.23;1742946;81;27529;-61
2022/10/09 10:10:27;;;;;;;;;;;;;;;30.31;26.46;101574.66;1741032;81;25783;-61
2022/10/09 10:12:57;;;;;;;;;;;;;;;30.47;25.48;101571.05;1741874;80;25681;-59
2022/10/09 10:15:27;;;;;;;;;;;;;;;30.81;26.38;101565.53;1740965;80;25591;-61
2022/10/09 10:18:04;;;;;;;;;;;;;;;30.52;24.01;101565.64;1747716;81;25708;-60
2022/10/09 10:20:32;;;;;;;;;;;;;;;30.67;25.53;101566.98;1744609;81;27508;-60
2022/10/09 10:22:59;;;;;;;;;;;;;;;30.99;25.87;101569.98;1739966;82;25763;-60
2022/10/09 10:25:29;;;;;;;;;;;;;;;31.19;25.82;101559.75;1743374;81;25793;-60
2022/10/09 10:28:08;;;;;;;;;;;;;;;31.63;23.96;101563.64;1740299;82;27770;-61
2022/10/09 10:30:36;;;;;;;;;;;;;;;31.44;24.26;101572.30;1746598;80;27468;-60
2022/10/09 10:33:13;;;;;;;;;;;;;;;31.14;23.11;101569.41;1757891;80;27460;-62
2022/10/09 10:35:41;;;;;;;;;;;;;;;31.12;24.87;101567.96;1741199;80;25773;-60
2022/10/09 10:38:26;;;;;;;;;;;;;;;31.19;24.03;101568.08;1781828;80;25760;-62
2022/10/09 10:40:56;;;;;;;;;;;;;;;31.05;24.62;101568.13;1757807;80;25766;-60
2022/10/09 10:43:32;;;;;;;;;;;;;;;31.63;25.14;101556.69;1750481;81;25939;-61
2022/10/09 10:46:35;;;;;;;;;;;;;;;31.40;23.63;101566.13;1756773;80;29700;-62
2022/10/09 10:49:02;;;;;;;;;;;;;;;30.96;24.44;101565.49;1751784;80;25835;-61
2022/10/09 10:51:50;;;;;;;;;;;;;;;30.64;25.48;101557.75;1755739;80;25820;-61
2022/10/09 10:54:41;;;;;;;;;;;;;;;30.13;25.35;101548.25;1752292;81;26225;-61
2022/10/09 10:57:15;;;;;;;;;;;;;;;29.72;26.08;101549.38;1753560;81;25770;-61
2022/10/09 10:59:51;;;;;;;;;;;;;;;29.23;26.49;101542.78;1753702;80;27536;-60
2022/10/09 11:02:38;;;;;;;;;;;;;;;29.42;26.77;101541.55;1757620;80;25817;-60
2022/10/09 11:05:28;;;;;;;;;;;;;;;29.97;26.29;101536.05;1753846;80;25758;-60
2022/10/09 11:07:58;;;;;;;;;;;;;;;29.45;27.63;101536.91;1753158;80;25716;-60
2022/10/09 11:10:52;;;;;;;;;;;;;;;29.40;27.31;101545.66;1756221;80;25752;-60
2022/10/09 11:13:27;;;;;;;;;;;;;;;28.76;27.97;101538.08;1752801;80;28503;-61
2022/10/09 11:16:19;;;;;;;;;;;;;;;27.52;29.73;101536.13;1752555;80;25747;-60
2022/10/09 11:19:02;;;;;;;;;;;;;;;27.10;30.49;101522.97;1751460;81;25711;-61
2022/10/09 11:21:35;;;;;;;;;;;;;;;27.15;30.83;101525.91;1778000;80;26273;-61
2022/10/09 11:24:14;;;;;;;;;;;;;;;27.24;31.54;101525.91;1770751;80;25747;-61
2022/10/09 11:26:47;;;;;;;;;;;;;;;27.53;31.02;101519.86;1779663;80;27538;-61
2022/10/09 11:29:35;;;;;;;;;;;;;;;27.58;31.29;101518.09;1787887;79;25469;-60
2022/10/09 11:32:20;;;;;;;;;;;;;;;27.60;31.32;101517.84;1776475;80;25858;-60
2022/10/09 11:34:56;;;;;;;;;;;;;;;27.61;31.35;101523.12;1781512;79;25662;-60
2022/10/09 11:37:26;;;;;;;;;;;;;;;27.15;31.81;101523.97;1787786;80;25488;-60
2022/10/09 11:39:54;;;;;;;;;;;;;;;26.76;32.31;101524.64;1744621;80;28415;-60
2022/10/09 11:42:23;;;;;;;;;;;;;;;26.62;32.81;101517.56;1775242;80;25702;-59
2022/10/09 11:45:06;;;;;;;;;;;;;;;26.53;33.10;101517.84;1786489;80;25770;-61
2022/10/09 11:47:51;;;;;;;;;;;;;;;26.54;33.40;101518.16;1787191;79;26289;-60
2022/10/09 11:50:40;;;;;;;;;;;;;;;26.61;33.50;101518.11;1767255;80;25696;-60
2022/10/09 11:53:15;;;;;;;;;;;;;;;26.39;34.15;101512.97;1757670;80;28542;-59
2022/10/09 11:55:42;;;;;;;;;;;;;;;25.87;35.34;101520.50;1787038;79;25673;-60
2022/10/09 11:58:14;;;;;;;;;;;;;;;25.33;36.16;101523.99;1778458;80;25788;-59
2022/10/09 12:00:42;;;;;;;;;;;;;;;24.66;37.70;101534.01;1765888;80;25699;-60
2022/10/09 12:03:21;;;;;;;;;;;;;;;24.13;38.89;101532.04;1755010;80;26317;-61
2022/10/09 12:05:49;;;;;;;;;;;;;;;23.91;39.17;101530.81;1712838;83;27539;-61
2022/10/09 12:08:18;;;;;;;;;;;;;;;23.60;40.25;101537.66;1751770;81;25641;-60
2022/10/09 12:10:51;;;;;;;;;;;;;;;23.25;40.96;101543.17;1725883;82;25616;-60
2022/10/09 12:13:40;;;;;;;;;;;;;;;22.96;42.70;101542.31;1755909;80;25799;-60
2022/10/09 12:16:29;;;;;;;;;;;;;;;22.74;43.77;101546.17;1785481;80;26408;-61
2022/10/09 12:18:58;;;;;;;;;;;;;;;22.52;43.96;101564.00;1633167;87;28534;-59
2022/10/09 12:21:27;;;;;;;;;;;;;;;22.41;44.45;101566.75;1641769;84;25906;-61
2022/10/09 12:23:54;;;;;;;;;;;;;;;22.28;44.63;101573.42;1633987;87;25842;-61
2022/10/09 12:26:23;;;;;;;;;;;;;;;21.98;44.84;101574.90;1636249;86;25826;-60
2022/10/09 12:28:56;;;;;;;;;;;;;;;21.33;46.35;101591.06;1634406;86;25747;-60
2022/10/09 12:31:32;;;;;;;;;;;;;;;20.95;46.55;101591.42;1636814;86;27549;-59
2022/10/09 12:34:23;;;;;;;;;;;;;;;20.45;48.32;101596.94;1661844;85;25805;-60
2022/10/09 12:36:49;;;;;;;;;;;;;;;20.25;48.60;101605.59;1658514;86;25511;-60
2022/10/09 12:39:22;;;;;;;;;;;;;;;20.15;48.60;101603.61;1639039;86;25819;-60
2022/10/09 12:41:51;;;;;;;;;;;;;;;19.97;49.41;101604.72;1630710;86;25903;-60
2022/10/09 12:44:30;;;;;;;;;;;;;;;19.94;49.00;101608.33;1629717;86;27440;-60
2022/10/09 12:47:08;;;;;;;;;;;;;;;19.81;49.45;101609.70;1658558;86;26152;-60
2022/10/09 12:49:35;;;;;;;;;;;;;;;19.80;49.51;101610.77;1687097;80;25895;-60
2022/10/09 12:52:01;;;;;;;;;;;;;;;19.81;49.49;101608.87;1754033;80;25714;-60
2022/10/09 12:54:29;;;;;;;;;;;;;;;19.83;49.84;101606.82;1761412;80;25684;-61
2022/10/09 12:56:57;;;;;;;;;;;;;;;19.85;49.61;101614.36;1762999;80;27542;-60